createdAt,value
2019-04-05T00:01:16.986Z,12.35
2019-04-05T00:03:45.391Z,13.43
2019-04-05T00:06:13.814Z,13.00
2019-04-05T00:08:42.211Z,12.23
2019-04-05T00:11:10.638Z,12.15
2019-04-05T00:13:39.134Z,12.82
2019-04-05T00:16:07.627Z,11.78
2019-04-05T00:18:36.079Z,11.20
2019-04-05T00:21:04.586Z,11.00
2019-04-05T00:23:32.989Z,12.30
2019-04-05T00:26:01.413Z,12.05
2019-04-05T00:28:29.958Z,11.83
2019-04-05T00:30:58.362Z,12.18
2019-04-05T00:33:26.746Z,12.73
2019-04-05T00:35:55.150Z,12.25
2019-04-05T00:38:23.806Z,13.55
2019-04-05T00:40:52.210Z,13.98
2019-04-05T00:43:20.690Z,13.98
2019-04-05T00:45:49.186Z,14.25
2019-04-05T00:48:17.802Z,12.75
2019-04-05T00:50:46.210Z,12.98
2019-04-05T00:53:14.682Z,12.35
2019-04-05T00:55:43.122Z,12.90
2019-04-05T00:58:11.585Z,12.30
2019-04-05T01:00:40.097Z,12.55
2019-04-05T01:03:08.490Z,12.13
2019-04-05T01:05:36.889Z,12.65
2019-04-05T01:08:05.552Z,12.82
2019-04-05T01:10:34.026Z,11.83
2019-04-05T01:13:03.011Z,13.00
2019-04-05T01:15:40.761Z,12.33
2019-04-05T01:18:01.698Z,12.30
2019-04-05T01:20:33.181Z,12.33
2019-04-05T01:23:04.333Z,11.68
2019-04-05T01:25:35.379Z,12.85
2019-04-05T01:28:04.026Z,11.68
2019-04-05T01:30:32.566Z,12.13
2019-04-05T01:33:01.030Z,11.68
2019-04-05T01:35:29.435Z,11.45
2019-04-05T01:37:58.476Z,11.55
2019-04-05T01:40:29.710Z,12.73
2019-04-05T01:42:58.296Z,13.43
2019-04-05T01:45:27.086Z,12.00
2019-04-05T01:47:55.718Z,11.50
2019-04-05T01:50:24.122Z,12.90
2019-04-05T01:52:53.188Z,12.15
2019-04-05T01:55:21.593Z,13.38
2019-04-05T01:57:49.990Z,10.72
2019-04-05T02:00:18.546Z,11.73
2019-04-05T02:02:47.129Z,12.03
2019-04-05T02:05:15.771Z,12.23
2019-04-05T02:07:44.502Z,11.95
2019-04-05T02:10:13.339Z,11.85
2019-04-05T02:12:41.743Z,11.90
2019-04-05T02:15:11.860Z,11.85
2019-04-05T02:17:40.258Z,11.83
2019-04-05T02:20:09.314Z,13.32
2019-04-05T02:22:37.849Z,13.43
2019-04-05T02:25:07.191Z,11.80
2019-04-05T02:27:35.595Z,12.37
2019-04-05T02:30:06.260Z,11.15
2019-04-05T02:32:34.732Z,12.00
2019-04-05T02:35:04.159Z,11.33
2019-04-05T02:37:32.607Z,12.25
2019-04-05T02:40:01.113Z,12.03
2019-04-05T02:42:30.419Z,12.30
2019-04-05T02:44:59.481Z,12.90
2019-04-05T02:47:28.662Z,11.95
2019-04-05T02:49:58.410Z,13.83
2019-04-05T02:52:28.054Z,12.90
2019-04-05T02:54:57.363Z,15.18
2019-04-05T02:57:27.283Z,13.10
2019-04-05T02:59:56.097Z,12.68
2019-04-05T03:02:25.167Z,11.55
2019-04-05T03:04:53.566Z,13.60
2019-04-05T03:07:22.420Z,13.03
2019-04-05T03:09:51.374Z,12.53
2019-04-05T03:12:20.036Z,13.68
2019-04-05T03:14:48.997Z,12.20
2019-04-05T03:17:17.744Z,12.05
2019-04-05T03:19:47.176Z,13.20
2019-04-05T03:25:05.844Z,13.10
2019-04-05T03:27:37.269Z,12.50
2019-04-05T03:30:07.703Z,11.40
2019-04-05T03:32:36.243Z,11.70
2019-04-05T03:35:05.983Z,11.80
2019-04-05T03:37:34.693Z,12.30
2019-04-05T03:40:04.480Z,11.55
2019-04-05T03:42:32.987Z,12.15
2019-04-05T03:45:01.630Z,12.18
2019-04-05T03:47:30.332Z,14.40
2019-04-05T03:49:59.216Z,13.10
2019-04-05T03:52:27.687Z,12.47
2019-04-05T03:54:56.081Z,12.10
2019-04-05T03:57:24.501Z,11.83
2019-04-05T03:59:53.276Z,12.47
2019-04-05T04:02:23.493Z,12.73
2019-04-05T04:04:51.967Z,12.50
2019-04-05T04:07:22.102Z,12.13
2019-04-05T04:09:50.886Z,11.83
2019-04-05T04:12:19.335Z,15.05
2019-04-05T04:14:47.887Z,12.25
2019-04-05T04:17:16.348Z,13.00
2019-04-05T04:19:44.996Z,12.78
2019-04-05T04:22:16.471Z,13.72
2019-04-05T04:24:44.879Z,12.90
2019-04-05T04:27:13.534Z,13.40
2019-04-05T04:29:42.163Z,13.93
2019-04-05T04:32:10.727Z,12.25
2019-04-05T04:34:39.379Z,13.78
2019-04-05T04:37:08.047Z,14.53
2019-04-05T04:39:37.325Z,13.50
2019-04-05T04:42:06.944Z,13.22
2019-04-05T04:44:35.347Z,11.65
2019-04-05T04:47:04.143Z,10.90
2019-04-05T04:49:33.209Z,11.65
2019-04-05T04:52:01.895Z,11.88
2019-04-05T04:54:30.425Z,11.00
2019-04-05T04:56:59.101Z,11.78
2019-04-05T04:59:27.561Z,11.08
2019-04-05T05:01:56.209Z,11.22
2019-04-05T05:04:24.918Z,11.35
2019-04-05T05:06:53.486Z,9.80
2019-04-05T05:09:21.969Z,11.33
2019-04-05T05:11:50.621Z,11.10
2019-04-05T05:14:19.613Z,11.30
2019-04-05T05:16:48.122Z,12.47
2019-04-05T05:19:16.786Z,11.75
2019-04-05T05:21:45.250Z,12.03
2019-04-05T05:24:13.888Z,12.47
2019-04-05T05:26:42.353Z,14.25
2019-04-05T05:29:10.843Z,13.38
2019-04-05T05:31:39.471Z,11.85
2019-04-05T05:34:08.177Z,13.68
2019-04-05T05:36:36.664Z,13.08
2019-04-05T05:39:07.608Z,11.50
2019-04-05T05:41:36.267Z,11.75
2019-04-05T05:44:05.092Z,11.05
2019-04-05T05:46:33.803Z,12.00
2019-04-05T05:49:02.238Z,12.47
2019-04-05T05:51:30.933Z,11.57
2019-04-05T05:53:59.367Z,10.65
2019-04-05T05:56:27.816Z,12.73
2019-04-05T05:58:59.425Z,10.95
2019-04-05T06:01:27.107Z,11.15
2019-04-05T06:03:55.781Z,11.38
2019-04-05T06:06:24.425Z,12.28
2019-04-05T06:08:52.865Z,11.05
2019-04-05T06:11:21.274Z,10.70
2019-04-05T06:13:49.751Z,10.48
2019-04-05T06:16:18.248Z,10.03
2019-04-05T06:18:48.566Z,11.38
2019-04-05T06:21:17.056Z,10.88
2019-04-05T06:23:45.702Z,11.93
2019-04-05T06:26:14.116Z,12.20
2019-04-05T06:28:42.886Z,11.30
2019-04-05T06:31:11.678Z,11.70
2019-04-05T06:33:40.306Z,10.55
2019-04-05T06:36:08.730Z,12.85
2019-04-05T06:38:37.134Z,13.00
2019-04-05T06:41:05.611Z,12.98
2019-04-05T06:43:34.013Z,12.05
2019-04-05T06:46:02.518Z,13.80
2019-04-05T06:48:31.272Z,14.40
2019-04-05T06:51:01.262Z,13.00
2019-04-05T06:53:29.653Z,14.50
2019-04-05T06:55:59.763Z,16.07
2019-04-05T06:58:29.667Z,14.20
2019-04-05T07:00:58.079Z,14.18
2019-04-05T07:03:26.465Z,14.20
2019-04-05T07:05:57.923Z,14.53
2019-04-05T07:08:26.379Z,12.85
2019-04-05T07:10:55.023Z,14.63
2019-04-05T07:13:23.421Z,15.20
2019-04-05T07:15:51.817Z,14.53
2019-04-05T07:18:32.651Z,12.25
2019-04-05T07:20:50.612Z,14.95
2019-04-05T07:23:19.015Z,14.40
2019-04-05T07:25:47.417Z,15.50
2019-04-05T07:28:15.839Z,16.67
2019-04-05T07:30:44.511Z,16.27
2019-04-05T07:33:12.983Z,14.53
2019-04-05T07:35:41.414Z,15.15
2019-04-05T07:38:24.818Z,15.20
2019-04-05T07:40:53.531Z,14.68
2019-04-05T07:43:22.163Z,14.43
2019-04-05T07:45:50.810Z,13.98
2019-04-05T07:48:19.462Z,15.10
2019-04-05T07:50:47.868Z,13.55
2019-04-05T07:53:16.509Z,13.90
2019-04-05T07:55:44.987Z,15.28
2019-04-05T07:58:13.398Z,14.38
2019-04-05T08:00:50.367Z,15.50
2019-04-05T08:03:19.998Z,17.17
2019-04-05T08:05:49.036Z,16.07
2019-04-05T08:08:23.455Z,14.13
2019-04-05T08:10:52.035Z,15.20
2019-04-05T08:13:21.973Z,16.40
2019-04-05T08:15:51.064Z,14.70
2019-04-05T08:18:19.483Z,13.43
2019-04-05T08:20:47.869Z,14.43
2019-04-05T08:23:16.288Z,13.13
2019-04-05T08:25:44.685Z,10.85
2019-04-05T08:28:13.093Z,15.70
2019-04-05T08:30:41.724Z,14.00
2019-04-05T08:33:10.127Z,11.73
2019-04-05T08:35:41.661Z,12.03
2019-04-05T08:38:10.305Z,12.20
2019-04-05T08:40:38.710Z,12.15
2019-04-05T08:43:13.079Z,12.07
2019-04-05T08:45:41.591Z,14.53
2019-04-05T08:48:10.242Z,12.18
2019-04-05T08:50:38.879Z,13.70
2019-04-05T08:53:07.287Z,10.93
2019-04-05T08:55:35.717Z,13.53
2019-04-05T08:58:04.281Z,12.07
2019-04-05T09:00:32.689Z,11.60
2019-04-05T09:03:01.102Z,11.70
2019-04-05T09:05:29.502Z,11.20
2019-04-05T09:07:58.000Z,10.85
2019-04-05T09:10:26.400Z,11.53
2019-04-05T09:12:54.842Z,12.05
2019-04-05T09:15:23.239Z,13.05
2019-04-05T09:17:51.638Z,12.43
2019-04-05T09:20:20.046Z,11.30
2019-04-05T09:22:48.445Z,12.35
2019-04-05T09:25:19.671Z,12.23
2019-04-05T09:27:47.642Z,11.78
2019-04-05T09:30:17.968Z,11.65
2019-04-05T09:32:46.375Z,10.98
2019-04-05T09:35:14.902Z,11.12
2019-04-05T09:37:43.323Z,10.13
2019-04-05T09:40:12.174Z,11.22
2019-04-05T09:42:40.641Z,10.40
2019-04-05T09:45:09.176Z,9.85
2019-04-05T09:47:37.892Z,10.58
2019-04-05T09:50:06.686Z,10.68
2019-04-05T09:52:35.139Z,11.50
2019-04-05T09:55:04.202Z,10.10
2019-04-05T09:57:32.863Z,10.93
2019-04-05T10:00:01.507Z,12.78
2019-04-05T10:02:31.847Z,10.75
2019-04-05T10:05:00.038Z,10.40
2019-04-05T10:07:28.693Z,9.93
2019-04-05T10:09:57.081Z,11.40
2019-04-05T10:12:25.523Z,10.55
2019-04-05T10:14:54.240Z,11.20
2019-04-05T10:17:22.709Z,11.70
2019-04-05T10:19:51.146Z,12.90
2019-04-05T10:22:19.575Z,10.98
2019-04-05T10:24:48.311Z,10.67
2019-04-05T10:27:16.725Z,10.17
2019-04-05T10:29:45.125Z,10.03
2019-04-05T10:32:13.865Z,11.10
2019-04-05T10:34:42.303Z,10.67
2019-04-05T10:37:10.998Z,10.83
2019-04-05T10:39:39.622Z,11.07
2019-04-05T10:42:13.920Z,9.85
2019-04-05T10:44:42.807Z,10.30
2019-04-05T10:47:11.454Z,11.33
2019-04-05T10:49:39.862Z,9.45
2019-04-05T10:52:08.293Z,10.03
2019-04-05T10:54:36.752Z,9.15
2019-04-05T10:57:05.407Z,8.35
2019-04-05T10:59:33.799Z,9.78
2019-04-05T11:02:02.222Z,10.90
2019-04-05T11:04:30.609Z,10.18
2019-04-05T11:06:59.006Z,10.98
2019-04-05T11:09:27.420Z,11.05
2019-04-05T11:11:55.820Z,10.38
2019-04-05T11:14:24.225Z,10.78
2019-04-05T11:16:58.311Z,11.00
2019-04-05T11:19:22.749Z,10.05
2019-04-05T11:21:52.408Z,9.30
2019-04-05T11:24:21.283Z,10.53
2019-04-05T11:26:49.944Z,10.30
2019-04-05T11:29:18.646Z,10.08
2019-04-05T11:31:57.057Z,11.70
2019-04-05T11:34:17.611Z,12.55
2019-04-05T11:36:46.813Z,11.05
2019-04-05T11:39:15.358Z,11.80
2019-04-05T11:41:44.315Z,12.18
2019-04-05T11:44:13.206Z,12.23
2019-04-05T11:46:42.656Z,10.43
2019-04-05T11:49:12.000Z,11.75
2019-04-05T11:51:43.026Z,11.45
2019-04-05T11:54:11.749Z,12.13
2019-04-05T11:56:40.773Z,11.48
2019-04-05T11:59:11.060Z,11.57
2019-04-05T12:01:43.518Z,9.80
2019-04-05T12:04:12.235Z,12.35
2019-04-05T12:06:40.875Z,11.97
2019-04-05T12:09:09.442Z,12.95
2019-04-05T12:11:37.890Z,11.90
2019-04-05T12:14:06.663Z,11.75
2019-04-05T12:16:36.233Z,11.57
2019-04-05T12:19:05.554Z,12.07
2019-04-05T12:21:34.772Z,11.10
2019-04-05T12:24:03.803Z,12.65
2019-04-05T12:26:32.472Z,12.53
2019-04-05T12:29:02.574Z,12.13
2019-04-05T12:31:30.975Z,13.50
2019-04-05T12:34:02.140Z,11.70
2019-04-05T12:36:30.602Z,12.70
2019-04-05T12:38:59.243Z,12.85
2019-04-05T12:41:27.642Z,12.18
2019-04-05T12:43:56.298Z,11.57
2019-04-05T12:46:25.004Z,13.50
2019-04-05T12:48:53.434Z,11.88
2019-04-05T12:51:22.005Z,13.38
2019-04-05T12:53:50.442Z,12.90
2019-04-05T12:56:19.364Z,12.20
2019-04-05T12:58:47.933Z,10.35
2019-04-05T13:01:18.104Z,10.75
2019-04-05T13:03:46.568Z,11.25
2019-04-05T13:06:15.001Z,16.30
2019-04-05T13:08:43.566Z,13.62
2019-04-05T13:11:12.416Z,11.95
2019-04-05T13:13:40.891Z,12.25
2019-04-05T13:16:12.239Z,12.13
2019-04-05T13:18:40.684Z,12.45
2019-04-05T13:21:15.311Z,11.78
2019-04-05T13:23:41.152Z,11.90
2019-04-05T13:26:12.342Z,13.50
2019-04-05T13:28:40.306Z,10.78
2019-04-05T13:31:08.818Z,10.53
2019-04-05T13:33:37.472Z,13.50
2019-04-05T13:36:08.282Z,11.95
2019-04-05T13:38:36.122Z,12.60
2019-04-05T13:41:06.304Z,13.68
2019-04-05T13:43:34.901Z,11.68
2019-04-05T13:46:03.598Z,12.80
2019-04-05T13:48:32.084Z,12.40
2019-04-05T13:51:00.477Z,11.22
2019-04-05T13:53:28.944Z,12.50
2019-04-05T13:55:57.498Z,12.55
2019-04-05T13:58:25.985Z,12.40
2019-04-05T14:00:54.923Z,12.00
2019-04-05T14:03:23.658Z,11.35
2019-04-05T14:05:54.029Z,10.98
2019-04-05T14:08:22.373Z,11.63
2019-04-05T14:10:50.842Z,10.48
2019-04-05T14:13:19.500Z,11.05
2019-04-05T14:15:48.170Z,12.85
2019-04-05T14:18:16.794Z,10.13
2019-04-05T14:20:45.422Z,11.20
2019-04-05T14:23:13.862Z,11.43
2019-04-05T14:25:42.718Z,11.53
2019-04-05T14:28:11.506Z,12.47
2019-04-05T14:30:40.034Z,12.40
2019-04-05T14:33:08.498Z,11.15
2019-04-05T14:35:37.210Z,12.45
2019-04-05T14:38:05.614Z,13.00
2019-04-05T14:40:34.091Z,13.18
2019-04-05T14:43:02.703Z,13.10
2019-04-05T14:45:31.089Z,10.70
2019-04-05T14:47:59.552Z,13.40
2019-04-05T14:50:28.773Z,12.33
2019-04-05T14:53:01.735Z,13.22
2019-04-05T14:55:29.932Z,13.05
2019-04-05T14:57:59.038Z,12.75
2019-04-05T15:00:30.514Z,11.57
2019-04-05T15:02:59.082Z,13.35
2019-04-05T15:05:27.729Z,12.43
2019-04-05T15:07:56.244Z,14.03
2019-04-05T15:10:25.375Z,12.33
2019-04-05T15:12:54.785Z,13.95
2019-04-05T15:15:23.246Z,12.10
2019-04-05T15:17:51.859Z,12.00
2019-04-05T15:20:20.442Z,13.08
2019-04-05T15:22:49.010Z,11.68
2019-04-05T15:25:21.589Z,12.03
2019-04-05T15:27:52.387Z,11.55
2019-04-05T15:30:19.700Z,13.40
2019-04-05T15:32:51.167Z,12.88
2019-04-05T15:35:20.094Z,12.70
2019-04-05T15:37:48.653Z,12.45
2019-04-05T15:40:17.254Z,12.68
2019-04-05T15:42:45.749Z,12.75
2019-04-05T15:45:16.187Z,11.93
2019-04-05T15:47:45.197Z,13.22
2019-04-05T15:50:13.842Z,12.18
2019-04-05T15:52:42.419Z,13.25
2019-04-05T15:55:11.024Z,11.55
2019-04-05T15:57:39.646Z,11.45
2019-04-05T16:00:10.909Z,13.68
2019-04-05T16:02:42.997Z,12.85
2019-04-05T16:05:12.075Z,13.32
2019-04-05T16:07:40.611Z,12.55
2019-04-05T16:10:12.490Z,12.00
2019-04-05T16:12:40.924Z,12.65
2019-04-05T16:15:18.480Z,12.10
2019-04-05T16:17:47.165Z,12.88
2019-04-05T16:20:16.088Z,15.05
2019-04-05T16:22:44.506Z,12.05
2019-04-05T16:25:13.537Z,11.83
2019-04-05T16:27:44.323Z,13.35
2019-04-05T16:30:13.486Z,12.93
2019-04-05T16:32:41.991Z,14.25
2019-04-05T16:35:14.735Z,13.70
2019-04-05T16:37:43.401Z,13.75
2019-04-05T16:40:12.542Z,13.30
2019-04-05T16:42:41.344Z,14.60
2019-04-05T16:45:14.261Z,12.88
2019-04-05T16:47:44.099Z,13.32
2019-04-05T16:50:14.425Z,12.28
2019-04-05T16:52:45.252Z,14.63
2019-04-05T16:55:13.375Z,15.55
2019-04-05T16:57:42.331Z,13.60
2019-04-05T17:00:13.062Z,14.30
2019-04-05T17:02:41.938Z,16.55
2019-04-05T17:05:11.527Z,13.22
2019-04-05T17:07:40.699Z,15.70
2019-04-05T17:10:09.683Z,13.65
2019-04-05T17:12:38.389Z,15.78
2019-04-05T17:15:08.786Z,14.83
2019-04-05T17:17:37.339Z,14.33
2019-04-05T17:20:06.995Z,13.45
2019-04-05T17:22:35.690Z,14.03
2019-04-05T17:25:07.171Z,15.63
2019-04-05T17:27:35.900Z,18.00
2019-04-05T17:30:05.929Z,15.25
2019-04-05T17:32:34.447Z,17.77
2019-04-05T17:35:03.074Z,15.80
2019-04-05T17:37:32.004Z,21.70
2019-04-05T17:40:00.495Z,21.68
2019-04-05T17:42:29.185Z,21.68
2019-04-05T17:44:57.968Z,19.73
2019-04-05T17:47:26.419Z,17.42
2019-04-05T17:49:55.291Z,19.10
2019-04-05T17:52:23.978Z,14.75
2019-04-05T17:54:52.524Z,14.23
2019-04-05T17:57:21.343Z,18.12
2019-04-05T17:59:56.114Z,17.65
2019-04-05T18:02:20.232Z,16.02
2019-04-05T18:04:48.734Z,16.12
2019-04-05T18:07:17.495Z,16.50
2019-04-05T18:09:46.064Z,16.55
2019-04-05T18:12:15.091Z,16.97
2019-04-05T18:14:43.547Z,18.27
2019-04-05T18:17:12.144Z,18.10
2019-04-05T18:19:40.707Z,16.85
2019-04-05T18:22:09.239Z,16.67
2019-04-05T18:24:37.785Z,16.62
2019-04-05T18:27:06.575Z,16.52
2019-04-05T18:29:35.523Z,19.15
2019-04-05T18:32:04.125Z,17.80
2019-04-05T18:34:32.927Z,18.98
2019-04-05T18:37:01.513Z,19.05
2019-04-05T18:39:30.055Z,17.45
2019-04-05T18:41:58.623Z,19.87
2019-04-05T18:44:27.037Z,21.07
2019-04-05T18:46:55.798Z,21.30
2019-04-05T18:49:24.504Z,18.32
2019-04-05T18:51:53.275Z,20.92
2019-04-05T18:54:21.752Z,21.02
2019-04-05T18:56:50.286Z,21.12
2019-04-05T18:59:18.802Z,20.23
2019-04-05T19:01:47.435Z,21.00
2019-04-05T19:04:15.842Z,21.62
2019-04-05T19:06:46.189Z,18.80
2019-04-05T19:09:15.668Z,25.97
2019-04-05T19:11:44.081Z,21.42
2019-04-05T19:14:12.518Z,20.72
2019-04-05T19:16:40.930Z,18.75
2019-04-05T19:19:09.650Z,21.93
2019-04-05T19:21:38.583Z,20.60
2019-04-05T19:24:07.199Z,22.10
2019-04-05T19:26:35.905Z,22.73
2019-04-05T19:29:05.320Z,22.45
2019-04-05T19:49:09.155Z,19.87
2019-04-05T19:51:37.652Z,22.55
2019-04-05T19:54:06.153Z,20.55
2019-04-05T19:56:34.794Z,22.17
2019-04-05T19:59:03.272Z,22.77
2019-04-05T20:01:32.643Z,23.18
2019-04-05T20:04:01.708Z,22.48
2019-04-05T20:06:31.286Z,22.85
2019-04-05T20:08:59.714Z,23.80
2019-04-05T20:11:28.381Z,22.20
2019-04-05T20:13:57.494Z,23.10
2019-04-05T20:16:26.135Z,24.95
2019-04-05T20:18:54.593Z,21.87
2019-04-05T20:21:23.428Z,22.93
2019-04-05T20:23:52.194Z,23.12
2019-04-05T20:26:21.157Z,25.70
2019-04-05T20:28:50.426Z,24.35
2019-04-05T20:31:19.302Z,23.50
2019-04-05T20:33:47.858Z,24.07
2019-04-05T20:36:17.434Z,25.57
2019-04-05T20:38:46.607Z,23.87
2019-04-05T20:41:15.370Z,25.17
2019-04-05T20:43:44.174Z,23.85
2019-04-05T20:46:13.131Z,23.10
2019-04-05T20:48:45.895Z,22.25
2019-04-05T20:51:15.551Z,23.83
2019-04-05T20:53:44.322Z,21.20
2019-04-05T20:56:12.997Z,23.12
2019-04-05T20:58:41.943Z,22.17
2019-04-05T21:01:10.326Z,23.75
2019-04-05T21:03:38.975Z,23.60
2019-04-05T21:06:07.372Z,25.12
2019-04-05T21:08:35.779Z,24.10
2019-04-05T21:11:04.451Z,25.52
2019-04-05T21:13:33.093Z,22.52
2019-04-05T21:16:01.502Z,23.30
2019-04-05T21:18:29.922Z,22.98
2019-04-05T21:20:58.329Z,23.10
2019-04-05T21:23:26.972Z,23.50
2019-04-05T21:25:55.461Z,22.93
2019-04-05T21:28:24.092Z,23.07
2019-04-05T21:30:52.725Z,22.93
2019-04-05T21:33:21.166Z,25.48
2019-04-05T21:35:49.575Z,24.20
2019-04-05T21:38:18.218Z,26.12
2019-04-05T21:40:46.874Z,28.12
2019-04-05T21:43:15.523Z,25.85
2019-04-05T21:45:43.954Z,23.35
2019-04-05T21:48:12.353Z,27.93
2019-04-05T21:50:40.778Z,25.60
2019-04-05T21:53:09.202Z,22.75
2019-04-05T21:55:37.597Z,22.55
2019-04-05T21:58:06.025Z,24.75
2019-04-05T22:00:44.090Z,22.32
2019-04-05T22:03:12.568Z,25.90
2019-04-05T22:05:40.985Z,23.67
2019-04-05T22:08:09.475Z,23.25
2019-04-05T22:10:37.882Z,26.70
2019-04-05T22:13:06.579Z,23.30
2019-04-05T22:15:38.243Z,22.55
2019-04-05T22:18:10.398Z,25.37
2019-04-05T22:20:38.835Z,23.85
2019-04-05T22:23:07.302Z,27.52
2019-04-05T22:25:35.730Z,25.92
2019-04-05T22:28:04.155Z,25.20
2019-04-05T22:30:32.658Z,24.85
2019-04-05T22:33:01.151Z,27.02
2019-04-05T22:35:29.838Z,25.88
2019-04-05T22:37:58.252Z,25.43
2019-04-05T22:40:26.662Z,24.70
2019-04-05T22:42:55.493Z,23.10
2019-04-05T22:45:24.108Z,22.87
2019-04-05T22:47:52.582Z,22.87
2019-04-05T22:50:21.306Z,23.87
2019-04-05T22:52:49.803Z,22.17
2019-04-05T22:55:18.210Z,21.15
2019-04-05T22:57:46.933Z,22.15
2019-04-05T23:00:15.999Z,23.25
2019-04-05T23:02:44.429Z,23.80
2019-04-05T23:05:13.155Z,24.50
2019-04-05T23:07:41.591Z,25.43
2019-04-05T23:10:10.198Z,22.77
2019-04-05T23:12:38.679Z,23.45
2019-04-05T23:15:08.495Z,24.82
2019-04-05T23:17:37.152Z,22.60
2019-04-05T23:20:06.837Z,22.10
2019-04-05T23:22:35.497Z,22.65
2019-04-05T23:25:05.751Z,23.57
2019-04-05T23:27:34.421Z,23.42
2019-04-05T23:30:03.402Z,23.07
2019-04-05T23:32:31.863Z,22.98
2019-04-05T23:35:00.282Z,25.05
2019-04-05T23:37:28.950Z,23.32
2019-04-05T23:39:57.380Z,22.95
2019-04-05T23:42:26.054Z,23.67
2019-04-05T23:44:54.705Z,22.87
2019-04-05T23:47:23.387Z,23.62
2019-04-05T23:49:52.054Z,24.50
2019-04-05T23:52:20.482Z,24.67
2019-04-05T23:54:49.158Z,24.82
2019-04-05T23:57:17.566Z,22.32
2019-04-05T23:59:46.035Z,24.27
